createdAt,value
2018-11-21T00:01:39.060Z,19.62
2018-11-21T00:04:06.835Z,17.57
2018-11-21T00:06:34.205Z,17.37
2018-11-21T00:09:02.316Z,17.75
2018-11-21T00:11:30.063Z,21.45
2018-11-21T00:13:57.834Z,18.23
2018-11-21T00:16:25.544Z,15.50
2018-11-21T00:18:53.281Z,17.77
2018-11-21T00:21:21.391Z,18.87
2018-11-21T00:23:49.927Z,18.52
2018-11-21T00:26:17.640Z,17.27
2018-11-21T00:28:45.384Z,15.98
2018-11-21T00:31:13.752Z,18.42
2018-11-21T00:33:41.808Z,20.73
2018-11-21T00:36:09.636Z,17.70
2018-11-21T00:38:37.032Z,17.00
2018-11-21T00:41:04.464Z,18.30
2018-11-21T00:43:32.343Z,18.70
2018-11-21T00:45:59.735Z,21.80
2018-11-21T00:48:27.489Z,23.73
2018-11-21T00:50:55.226Z,19.50
2018-11-21T00:53:23.092Z,17.53
2018-11-21T00:55:51.370Z,16.67
2018-11-21T00:58:19.195Z,18.75
2018-11-21T01:00:47.032Z,19.12
2018-11-21T01:03:15.125Z,21.20
2018-11-21T01:05:42.801Z,18.10
2018-11-21T01:08:10.450Z,22.95
2018-11-21T01:10:38.548Z,17.00
2018-11-21T01:13:06.295Z,18.23
2018-11-21T01:15:33.988Z,17.98
2018-11-21T01:18:01.617Z,17.80
2018-11-21T01:20:29.741Z,16.07
2018-11-21T01:22:57.805Z,16.50
2018-11-21T01:25:25.252Z,16.87
2018-11-21T01:27:53.281Z,17.02
2018-11-21T01:30:21.371Z,16.85
2018-11-21T01:32:49.541Z,17.32
2018-11-21T01:35:17.606Z,17.30
2018-11-21T01:37:45.272Z,18.90
2018-11-21T01:40:13.015Z,21.37
2018-11-21T01:42:40.901Z,18.17
2018-11-21T01:45:08.887Z,18.40
2018-11-21T01:47:36.976Z,17.30
2018-11-21T01:50:04.914Z,19.40
2018-11-21T01:52:32.662Z,21.57
2018-11-21T01:55:00.152Z,25.45
2018-11-21T01:57:27.269Z,23.33
2018-11-21T01:59:54.995Z,20.47
2018-11-21T02:02:22.432Z,22.40
2018-11-21T02:04:50.263Z,19.35
2018-11-21T02:07:18.245Z,18.10
2018-11-21T02:09:46.120Z,19.23
2018-11-21T02:12:13.780Z,20.50
2018-11-21T02:14:41.502Z,19.07
2018-11-21T02:17:09.558Z,18.75
2018-11-21T02:19:37.339Z,19.42
2018-11-21T02:22:05.446Z,19.02
2018-11-21T02:24:33.525Z,20.65
2018-11-21T02:27:01.004Z,24.52
2018-11-21T02:29:28.827Z,23.38
2018-11-21T02:31:56.568Z,20.17
2018-11-21T02:34:24.009Z,22.20
2018-11-21T02:36:51.762Z,21.40
2018-11-21T02:39:19.261Z,21.33
2018-11-21T02:41:46.981Z,18.55
2018-11-21T02:44:14.448Z,21.27
2018-11-21T02:46:42.607Z,21.30
2018-11-21T02:49:10.308Z,20.88
2018-11-21T02:51:39.246Z,18.80
2018-11-21T02:54:07.247Z,17.42
2018-11-21T02:56:52.677Z,16.60
2018-11-21T02:59:20.783Z,17.67
2018-11-21T03:01:48.985Z,16.67
2018-11-21T03:04:17.264Z,17.93
2018-11-21T03:06:44.972Z,18.00
2018-11-21T03:09:13.111Z,16.50
2018-11-21T03:11:40.170Z,17.50
2018-11-21T03:14:07.864Z,19.10
2018-11-21T03:16:36.608Z,20.10
2018-11-21T03:19:06.627Z,17.13
2018-11-21T03:21:34.412Z,16.90
2018-11-21T03:24:02.477Z,17.60
2018-11-21T03:26:30.230Z,18.20
2018-11-21T03:28:58.261Z,18.30
2018-11-21T03:31:25.596Z,16.20
2018-11-21T03:33:57.737Z,17.65
2018-11-21T03:36:21.014Z,18.47
2018-11-21T03:38:48.510Z,17.17
2018-11-21T03:41:16.642Z,17.80
2018-11-21T03:43:44.836Z,17.07
2018-11-21T03:46:13.007Z,17.55
2018-11-21T03:48:41.741Z,17.53
2018-11-21T03:51:09.959Z,19.30
2018-11-21T03:53:37.669Z,18.67
2018-11-21T03:56:05.289Z,17.67
2018-11-21T03:58:32.823Z,16.83
2018-11-21T04:01:00.788Z,16.77
2018-11-21T04:03:28.771Z,17.47
2018-11-21T04:05:56.885Z,17.00
2018-11-21T04:08:24.282Z,17.17
2018-11-21T04:10:51.738Z,17.50
2018-11-21T04:13:19.081Z,16.80
2018-11-21T04:15:46.824Z,16.48
2018-11-21T04:18:13.911Z,17.87
2018-11-21T04:20:41.999Z,17.07
2018-11-21T04:23:10.560Z,17.92
2018-11-21T04:25:38.274Z,19.27
2018-11-21T04:28:05.923Z,17.82
2018-11-21T04:30:33.730Z,15.70
2018-11-21T04:33:01.164Z,18.27
2018-11-21T04:35:28.529Z,17.65
2018-11-21T04:37:56.313Z,19.15
2018-11-21T04:40:23.423Z,17.73
2018-11-21T04:42:51.229Z,15.95
2018-11-21T04:45:19.364Z,19.50
2018-11-21T04:47:47.468Z,18.67
2018-11-21T04:50:15.522Z,19.60
2018-11-21T04:52:43.255Z,19.70
2018-11-21T04:55:10.892Z,17.17
2018-11-21T04:57:38.797Z,19.48
2018-11-21T05:00:07.683Z,19.70
2018-11-21T05:02:35.419Z,18.87
2018-11-21T05:05:02.896Z,20.00
2018-11-21T05:07:30.982Z,19.50
2018-11-21T05:09:58.360Z,19.30
2018-11-21T05:12:25.777Z,20.48
2018-11-21T05:14:53.272Z,18.23
2018-11-21T05:17:21.079Z,18.40
2018-11-21T05:19:48.752Z,16.33
2018-11-21T05:22:16.569Z,19.60
2018-11-21T05:24:44.740Z,18.00
2018-11-21T05:27:12.632Z,17.63
2018-11-21T05:29:40.368Z,17.43
2018-11-21T05:32:08.413Z,17.90
2018-11-21T05:34:36.514Z,16.50
2018-11-21T05:37:04.290Z,16.82
2018-11-21T05:39:32.126Z,19.00
2018-11-21T05:42:00.136Z,20.85
2018-11-21T05:44:31.399Z,20.45
2018-11-21T05:46:55.539Z,17.50
2018-11-21T05:49:23.995Z,18.62
2018-11-21T05:51:52.579Z,18.20
2018-11-21T05:54:20.316Z,18.12
2018-11-21T05:56:48.461Z,17.27
2018-11-21T05:59:16.500Z,18.45
2018-11-21T06:01:44.694Z,18.70
2018-11-21T06:04:12.253Z,18.97
2018-11-21T06:06:40.334Z,19.20
2018-11-21T06:09:10.156Z,18.83
2018-11-21T06:11:38.883Z,18.03
2018-11-21T06:14:06.897Z,16.83
2018-11-21T06:16:34.954Z,17.20
2018-11-21T06:19:02.679Z,15.97
2018-11-21T06:21:30.484Z,16.97
2018-11-21T06:23:58.201Z,17.53
2018-11-21T06:26:25.659Z,18.00
2018-11-21T06:28:54.338Z,20.90
2018-11-21T06:31:21.225Z,23.30
2018-11-21T06:33:49.346Z,21.87
2018-11-21T06:36:16.610Z,18.57
2018-11-21T06:38:44.541Z,17.45
2018-11-21T06:41:12.368Z,19.02
2018-11-21T06:43:40.100Z,17.05
2018-11-21T06:46:08.165Z,18.63
2018-11-21T06:48:35.541Z,17.57
2018-11-21T06:51:03.001Z,20.77
2018-11-21T06:53:30.724Z,17.42
2018-11-21T06:55:58.945Z,16.57
2018-11-21T06:58:26.701Z,18.07
2018-11-21T07:00:54.465Z,17.32
2018-11-21T07:03:22.181Z,17.50
2018-11-21T07:05:50.239Z,16.90
2018-11-21T07:08:18.014Z,16.75
2018-11-21T07:10:45.868Z,18.57
2018-11-21T07:13:14.076Z,18.90
2018-11-21T07:15:42.261Z,17.02
2018-11-21T07:18:09.983Z,17.12
2018-11-21T07:20:37.774Z,17.47
2018-11-21T07:23:05.567Z,16.47
2018-11-21T07:25:33.315Z,16.97
2018-11-21T07:28:01.101Z,16.67
2018-11-21T07:30:28.474Z,18.23
2018-11-21T07:32:56.771Z,16.80
2018-11-21T07:35:24.534Z,17.37
2018-11-21T07:37:52.245Z,19.10
2018-11-21T07:40:20.291Z,18.40
2018-11-21T07:42:49.343Z,16.63
2018-11-21T07:45:17.215Z,17.87
2018-11-21T07:47:45.203Z,18.73
2018-11-21T07:50:16.856Z,17.40
2018-11-21T07:52:44.667Z,15.83
2018-11-21T07:55:12.947Z,17.50
2018-11-21T07:57:50.990Z,17.30
2018-11-21T08:00:57.926Z,18.63
2018-11-21T08:03:27.251Z,19.20
2018-11-21T08:06:17.705Z,19.90
2018-11-21T08:09:13.557Z,18.27
2018-11-21T08:11:59.492Z,18.50
2018-11-21T08:14:49.325Z,18.07
2018-11-21T08:17:35.220Z,17.27
2018-11-21T08:20:31.010Z,17.90
2018-11-21T08:23:16.969Z,19.42
2018-11-21T08:26:07.074Z,20.80
2018-11-21T08:28:34.544Z,17.93
2018-11-21T08:31:01.941Z,18.67
2018-11-21T08:33:33.838Z,19.53
2018-11-21T08:35:58.088Z,17.13
2018-11-21T08:38:25.552Z,17.40
2018-11-21T08:40:53.267Z,17.87
2018-11-21T08:43:20.936Z,17.90
2018-11-21T08:45:49.046Z,16.37
2018-11-21T08:48:18.117Z,16.27
2018-11-21T08:50:46.168Z,14.40
2018-11-21T08:53:13.954Z,14.70
2018-11-21T08:55:41.786Z,14.40
2018-11-21T08:58:09.654Z,17.10
2018-11-21T09:00:37.169Z,15.70
2018-11-21T09:03:05.562Z,16.90
2018-11-21T09:05:32.960Z,15.23
2018-11-21T09:08:00.779Z,15.60
2018-11-21T09:12:58.047Z,18.33
2018-11-21T09:15:25.548Z,18.20
2018-11-21T09:17:52.870Z,13.63
2018-11-21T09:20:21.082Z,16.55
2018-11-21T09:22:49.151Z,14.03
2018-11-21T09:25:16.519Z,16.20
2018-11-21T09:27:44.615Z,13.53
2018-11-21T09:30:17.460Z,15.70
2018-11-21T09:32:46.376Z,14.97
2018-11-21T09:35:15.044Z,15.10
2018-11-21T09:37:43.086Z,12.63
2018-11-21T09:40:12.243Z,14.27
2018-11-21T09:42:41.461Z,14.93
2018-11-21T09:45:11.408Z,13.87
2018-11-21T09:47:38.404Z,14.60
2018-11-21T09:50:08.384Z,14.50
2018-11-21T09:52:36.173Z,19.90
2018-11-21T09:55:04.421Z,15.77
2018-11-21T09:57:32.565Z,18.30
2018-11-21T10:00:01.684Z,17.47
2018-11-21T10:02:47.319Z,16.43
2018-11-21T10:05:14.510Z,15.70
2018-11-21T10:07:49.109Z,18.17
2018-11-21T10:10:17.376Z,22.40
2018-11-21T10:12:44.938Z,16.40
2018-11-21T10:15:12.718Z,17.33
2018-11-21T10:17:39.807Z,16.60
2018-11-21T10:20:07.233Z,19.10
2018-11-21T10:22:34.629Z,18.53
2018-11-21T10:25:02.158Z,16.37
2018-11-21T10:27:29.875Z,14.47
2018-11-21T10:29:57.963Z,16.70
2018-11-21T10:32:25.708Z,15.77
2018-11-21T10:34:53.854Z,16.60
2018-11-21T10:37:21.900Z,17.10
2018-11-21T10:39:49.675Z,18.43
2018-11-21T10:42:17.182Z,14.90
2018-11-21T10:44:44.941Z,17.87
2018-11-21T10:47:12.639Z,13.00
2018-11-21T10:49:40.500Z,13.10
2018-11-21T10:52:08.198Z,13.77
2018-11-21T10:54:36.352Z,13.33
2018-11-21T10:57:03.764Z,19.60
2018-11-21T10:59:31.208Z,17.63
2018-11-21T11:02:17.010Z,19.00
2018-11-21T11:05:00.717Z,13.80
2018-11-21T11:08:02.723Z,13.40
2018-11-21T11:10:52.788Z,12.80
2018-11-21T11:13:38.977Z,11.97
2018-11-21T11:16:26.559Z,12.93
2018-11-21T11:19:26.073Z,13.23
2018-11-21T11:22:28.166Z,13.00
2018-11-21T11:25:13.706Z,12.60
2018-11-21T11:27:59.663Z,12.83
2018-11-21T11:30:52.591Z,13.47
2018-11-21T11:33:38.095Z,15.07
2018-11-21T11:36:37.171Z,19.83
2018-11-21T11:39:20.151Z,13.87
2018-11-21T11:41:54.673Z,14.47
2018-11-21T11:44:39.749Z,13.80
2018-11-21T11:47:25.763Z,11.90
2018-11-21T11:50:16.175Z,13.30
2018-11-21T11:53:15.989Z,12.20
2018-11-21T11:56:01.741Z,12.57
2018-11-21T11:59:07.058Z,12.40
2018-11-21T12:01:55.369Z,12.77
2018-11-21T12:04:31.297Z,14.73
2018-11-21T12:07:16.891Z,12.00
2018-11-21T12:10:06.768Z,12.23
